sensor_id;sensor_type;location;lat;lon;timestamp;P1;durP1;ratioP1;P2;durP2;ratioP2
37383;SDS011;23258;49.718;11.082;2023-10-13T00:02:18;7.95;;;6.25;;
37383;SDS011;23258;49.718;11.082;2023-10-13T00:04:49;13.57;;;7.05;;
37383;SDS011;23258;49.718;11.082;2023-10-13T00:07:22;12.63;;;6.07;;
37383;SDS011;23258;49.718;11.082;2023-10-13T00:09:51;10.38;;;6.55;;
37383;SDS011;23258;49.718;11.082;2023-10-13T00:12:23;6.95;;;6.25;;
37383;SDS011;23258;49.718;11.082;2023-10-13T00:14:53;9.88;;;6.03;;
37383;SDS011;23258;49.718;11.082;2023-10-13T00:17:22;7.07;;;5.93;;
37383;SDS011;23258;49.718;11.082;2023-10-13T00:19:52;9.43;;;6.50;;
37383;SDS011;23258;49.718;11.082;2023-10-13T00:22:29;8.02;;;6.07;;
37383;SDS011;23258;49.718;11.082;2023-10-13T00:25:00;8.82;;;6.22;;
37383;SDS011;23258;49.718;11.082;2023-10-13T00:27:30;7.30;;;6.15;;
37383;SDS011;23258;49.718;11.082;2023-10-13T00:30:03;8.98;;;6.13;;
37383;SDS011;23258;49.718;11.082;2023-10-13T00:32:50;7.03;;;5.93;;
37383;SDS011;23258;49.718;11.082;2023-10-13T00:35:23;6.93;;;6.22;;
37383;SDS011;23258;49.718;11.082;2023-10-13T00:38:05;6.55;;;5.75;;
37383;SDS011;23258;49.718;11.082;2023-10-13T00:40:39;11.85;;;7.00;;
37383;SDS011;23258;49.718;11.082;2023-10-13T00:43:19;9.10;;;6.20;;
37383;SDS011;23258;49.718;11.082;2023-10-13T00:46:04;6.70;;;5.95;;
37383;SDS011;23258;49.718;11.082;2023-10-13T00:48:36;6.55;;;5.85;;
37383;SDS011;23258;49.718;11.082;2023-10-13T00:51:10;6.03;;;5.53;;
37383;SDS011;23258;49.718;11.082;2023-10-13T00:53:48;6.40;;;5.55;;
37383;SDS011;23258;49.718;11.082;2023-10-13T00:56:18;7.70;;;6.65;;
37383;SDS011;23258;49.718;11.082;2023-10-13T00:58:53;7.78;;;6.18;;
37383;SDS011;23258;49.718;11.082;2023-10-13T01:01:26;7.25;;;5.85;;
37383;SDS011;23258;49.718;11.082;2023-10-13T01:03:56;7.30;;;5.57;;
37383;SDS011;23258;49.718;11.082;2023-10-13T01:06:30;7.13;;;5.97;;
37383;SDS011;23258;49.718;11.082;2023-10-13T01:09:00;10.20;;;6.35;;
37383;SDS011;23258;49.718;11.082;2023-10-13T01:11:38;8.43;;;6.20;;
37383;SDS011;23258;49.718;11.082;2023-10-13T01:14:05;8.52;;;5.90;;
37383;SDS011;23258;49.718;11.082;2023-10-13T01:16:35;6.30;;;5.53;;
37383;SDS011;23258;49.718;11.082;2023-10-13T01:19:02;8.07;;;6.10;;
37383;SDS011;23258;49.718;11.082;2023-10-13T01:21:32;6.93;;;5.80;;
37383;SDS011;23258;49.718;11.082;2023-10-13T01:24:05;5.80;;;5.28;;
37383;SDS011;23258;49.718;11.082;2023-10-13T01:26:34;6.40;;;5.60;;
37383;SDS011;23258;49.718;11.082;2023-10-13T01:29:06;6.20;;;5.60;;
37383;SDS011;23258;49.718;11.082;2023-10-13T01:31:41;7.13;;;5.65;;
37383;SDS011;23258;49.718;11.082;2023-10-13T01:34:17;10.60;;;5.15;;
37383;SDS011;23258;49.718;11.082;2023-10-13T01:36:49;12.13;;;6.55;;
37383;SDS011;23258;49.718;11.082;2023-10-13T01:39:23;6.55;;;5.65;;
37383;SDS011;23258;49.718;11.082;2023-10-13T01:41:53;7.05;;;6.10;;
37383;SDS011;23258;49.718;11.082;2023-10-13T01:44:25;9.25;;;6.15;;
37383;SDS011;23258;49.718;11.082;2023-10-13T01:46:53;7.47;;;5.95;;
37383;SDS011;23258;49.718;11.082;2023-10-13T01:49:26;8.60;;;6.20;;
37383;SDS011;23258;49.718;11.082;2023-10-13T01:51:54;8.57;;;6.57;;
37383;SDS011;23258;49.718;11.082;2023-10-13T01:54:32;8.63;;;5.97;;
37383;SDS011;23258;49.718;11.082;2023-10-13T01:56:59;6.47;;;5.85;;
37383;SDS011;23258;49.718;11.082;2023-10-13T01:59:31;8.98;;;5.97;;
37383;SDS011;23258;49.718;11.082;2023-10-13T02:01:58;7.97;;;6.53;;
37383;SDS011;23258;49.718;11.082;2023-10-13T02:04:28;6.50;;;5.47;;
37383;SDS011;23258;49.718;11.082;2023-10-13T02:06:55;6.82;;;6.13;;
37383;SDS011;23258;49.718;11.082;2023-10-13T02:09:25;7.45;;;6.20;;
37383;SDS011;23258;49.718;11.082;2023-10-13T02:11:55;8.43;;;6.25;;
37383;SDS011;23258;49.718;11.082;2023-10-13T02:14:24;10.95;;;6.60;;
37383;SDS011;23258;49.718;11.082;2023-10-13T02:16:52;9.73;;;6.25;;
37383;SDS011;23258;49.718;11.082;2023-10-13T02:19:39;7.18;;;5.82;;
37383;SDS011;23258;49.718;11.082;2023-10-13T02:22:12;6.57;;;5.97;;
37383;SDS011;23258;49.718;11.082;2023-10-13T02:24:51;8.40;;;6.07;;
37383;SDS011;23258;49.718;11.082;2023-10-13T02:27:32;9.93;;;7.25;;
37383;SDS011;23258;49.718;11.082;2023-10-13T02:30:08;10.95;;;6.45;;
37383;SDS011;23258;49.718;11.082;2023-10-13T02:32:40;8.00;;;5.90;;
37383;SDS011;23258;49.718;11.082;2023-10-13T02:35:10;8.18;;;6.05;;
37383;SDS011;23258;49.718;11.082;2023-10-13T02:37:42;10.65;;;6.55;;
37383;SDS011;23258;49.718;11.082;2023-10-13T02:40:11;7.70;;;6.60;;
37383;SDS011;23258;49.718;11.082;2023-10-13T02:42:43;8.93;;;6.07;;
37383;SDS011;23258;49.718;11.082;2023-10-13T02:45:10;7.47;;;5.70;;
37383;SDS011;23258;49.718;11.082;2023-10-13T02:47:40;12.13;;;6.18;;
37383;SDS011;23258;49.718;11.082;2023-10-13T02:50:10;12.75;;;7.25;;
37383;SDS011;23258;49.718;11.082;2023-10-13T02:52:44;9.40;;;6.57;;
37383;SDS011;23258;49.718;11.082;2023-10-13T02:55:17;10.27;;;6.90;;
37383;SDS011;23258;49.718;11.082;2023-10-13T02:57:54;6.50;;;5.93;;
37383;SDS011;23258;49.718;11.082;2023-10-13T03:00:24;7.07;;;6.38;;
37383;SDS011;23258;49.718;11.082;2023-10-13T03:02:59;13.45;;;6.20;;
37383;SDS011;23258;49.718;11.082;2023-10-13T03:05:32;7.50;;;5.70;;
37383;SDS011;23258;49.718;11.082;2023-10-13T03:08:02;10.60;;;6.45;;
37383;SDS011;23258;49.718;11.082;2023-10-13T03:10:33;7.63;;;6.18;;
37383;SDS011;23258;49.718;11.082;2023-10-13T03:13:03;8.52;;;6.40;;
37383;SDS011;23258;49.718;11.082;2023-10-13T03:15:36;8.23;;;5.93;;
37383;SDS011;23258;49.718;11.082;2023-10-13T03:18:03;10.90;;;6.70;;
37383;SDS011;23258;49.718;11.082;2023-10-13T03:20:33;8.10;;;6.50;;
37383;SDS011;23258;49.718;11.082;2023-10-13T03:23:08;9.52;;;5.18;;
37383;SDS011;23258;49.718;11.082;2023-10-13T03:25:38;9.15;;;6.93;;
37383;SDS011;23258;49.718;11.082;2023-10-13T03:28:12;7.95;;;6.05;;
37383;SDS011;23258;49.718;11.082;2023-10-13T03:30:44;7.88;;;6.40;;
37383;SDS011;23258;49.718;11.082;2023-10-13T03:33:11;8.45;;;6.03;;
37383;SDS011;23258;49.718;11.082;2023-10-13T03:35:52;7.82;;;6.35;;
37383;SDS011;23258;49.718;11.082;2023-10-13T03:38:26;9.77;;;5.35;;
37383;SDS011;23258;49.718;11.082;2023-10-13T03:40:56;8.20;;;5.10;;
37383;SDS011;23258;49.718;11.082;2023-10-13T03:43:36;10.38;;;5.35;;
37383;SDS011;23258;49.718;11.082;2023-10-13T03:46:18;8.90;;;5.65;;
37383;SDS011;23258;49.718;11.082;2023-10-13T03:48:49;10.38;;;5.45;;
37383;SDS011;23258;49.718;11.082;2023-10-13T03:51:26;9.60;;;5.75;;
37383;SDS011;23258;49.718;11.082;2023-10-13T03:54:00;7.65;;;5.22;;
37383;SDS011;23258;49.718;11.082;2023-10-13T03:56:35;6.72;;;5.38;;
37383;SDS011;23258;49.718;11.082;2023-10-13T03:59:11;6.82;;;6.13;;
37383;SDS011;23258;49.718;11.082;2023-10-13T04:01:48;9.38;;;5.35;;
37383;SDS011;23258;49.718;11.082;2023-10-13T04:04:25;7.45;;;5.72;;
37383;SDS011;23258;49.718;11.082;2023-10-13T04:07:10;6.97;;;5.93;;
37383;SDS011;23258;49.718;11.082;2023-10-13T04:10:07;6.53;;;5.28;;
37383;SDS011;23258;49.718;11.082;2023-10-13T04:13:04;10.00;;;6.63;;
37383;SDS011;23258;49.718;11.082;2023-10-13T04:15:49;6.45;;;5.43;;
37383;SDS011;23258;49.718;11.082;2023-10-13T04:18:31;8.02;;;5.47;;
37383;SDS011;23258;49.718;11.082;2023-10-13T04:21:16;7.85;;;5.90;;
37383;SDS011;23258;49.718;11.082;2023-10-13T04:24:09;7.15;;;6.05;;
37383;SDS011;23258;49.718;11.082;2023-10-13T04:26:51;10.45;;;5.80;;
37383;SDS011;23258;49.718;11.082;2023-10-13T04:29:33;7.32;;;6.10;;
37383;SDS011;23258;49.718;11.082;2023-10-13T04:32:21;8.57;;;5.70;;
37383;SDS011;23258;49.718;11.082;2023-10-13T04:34:56;8.80;;;6.28;;
37383;SDS011;23258;49.718;11.082;2023-10-13T04:37:35;7.15;;;6.45;;
37383;SDS011;23258;49.718;11.082;2023-10-13T04:40:18;8.85;;;6.40;;
37383;SDS011;23258;49.718;11.082;2023-10-13T04:42:52;7.53;;;6.38;;
37383;SDS011;23258;49.718;11.082;2023-10-13T04:45:20;7.22;;;6.35;;
37383;SDS011;23258;49.718;11.082;2023-10-13T04:48:05;9.05;;;6.68;;
37383;SDS011;23258;49.718;11.082;2023-10-13T04:51:01;6.15;;;5.30;;
37383;SDS011;23258;49.718;11.082;2023-10-13T04:53:43;9.65;;;6.70;;
37383;SDS011;23258;49.718;11.082;2023-10-13T04:56:25;7.93;;;5.80;;
37383;SDS011;23258;49.718;11.082;2023-10-13T04:59:19;9.43;;;6.28;;
37383;SDS011;23258;49.718;11.082;2023-10-13T05:02:01;11.13;;;6.50;;
37383;SDS011;23258;49.718;11.082;2023-10-13T05:04:46;7.60;;;6.22;;
37383;SDS011;23258;49.718;11.082;2023-10-13T05:07:28;8.02;;;6.47;;
37383;SDS011;23258;49.718;11.082;2023-10-13T05:10:10;8.82;;;6.07;;
37383;SDS011;23258;49.718;11.082;2023-10-13T05:12:52;8.43;;;6.28;;
37383;SDS011;23258;49.718;11.082;2023-10-13T05:15:41;9.43;;;6.22;;
37383;SDS011;23258;49.718;11.082;2023-10-13T05:18:24;7.85;;;6.47;;
37383;SDS011;23258;49.718;11.082;2023-10-13T05:21:08;6.32;;;5.72;;
37383;SDS011;23258;49.718;11.082;2023-10-13T05:23:50;10.07;;;5.93;;
37383;SDS011;23258;49.718;11.082;2023-10-13T05:26:33;7.43;;;6.07;;
37383;SDS011;23258;49.718;11.082;2023-10-13T05:29:20;7.13;;;5.95;;
37383;SDS011;23258;49.718;11.082;2023-10-13T05:32:03;7.43;;;6.03;;
37383;SDS011;23258;49.718;11.082;2023-10-13T05:34:45;7.05;;;5.68;;
37383;SDS011;23258;49.718;11.082;2023-10-13T05:37:30;9.40;;;6.30;;
37383;SDS011;23258;49.718;11.082;2023-10-13T05:40:15;11.48;;;5.97;;
37383;SDS011;23258;49.718;11.082;2023-10-13T05:42:57;6.60;;;5.78;;
37383;SDS011;23258;49.718;11.082;2023-10-13T05:45:39;7.78;;;6.28;;
37383;SDS011;23258;49.718;11.082;2023-10-13T05:48:24;6.72;;;6.10;;
37383;SDS011;23258;49.718;11.082;2023-10-13T05:51:08;7.63;;;5.70;;
37383;SDS011;23258;49.718;11.082;2023-10-13T05:53:53;7.82;;;6.05;;
37383;SDS011;23258;49.718;11.082;2023-10-13T05:56:36;7.70;;;5.90;;
37383;SDS011;23258;49.718;11.082;2023-10-13T05:59:18;7.15;;;6.00;;
37383;SDS011;23258;49.718;11.082;2023-10-13T06:02:00;9.73;;;6.30;;
37383;SDS011;23258;49.718;11.082;2023-10-13T06:04:42;9.00;;;5.95;;
37383;SDS011;23258;49.718;11.082;2023-10-13T06:07:24;9.68;;;5.68;;
37383;SDS011;23258;49.718;11.082;2023-10-13T06:10:10;8.32;;;6.50;;
37383;SDS011;23258;49.718;11.082;2023-10-13T06:13:04;6.65;;;5.93;;
37383;SDS011;23258;49.718;11.082;2023-10-13T06:15:46;9.77;;;6.28;;
37383;SDS011;23258;49.718;11.082;2023-10-13T06:18:31;9.80;;;6.05;;
37383;SDS011;23258;49.718;11.082;2023-10-13T06:21:13;5.80;;;5.30;;
37383;SDS011;23258;49.718;11.082;2023-10-13T06:23:55;6.53;;;5.97;;
37383;SDS011;23258;49.718;11.082;2023-10-13T06:26:42;9.32;;;6.07;;
37383;SDS011;23258;49.718;11.082;2023-10-13T06:29:25;8.50;;;5.57;;
37383;SDS011;23258;49.718;11.082;2023-10-13T06:31:54;7.50;;;5.55;;
37383;SDS011;23258;49.718;11.082;2023-10-13T06:34:24;8.55;;;5.13;;
37383;SDS011;23258;49.718;11.082;2023-10-13T06:37:04;6.07;;;5.53;;
37383;SDS011;23258;49.718;11.082;2023-10-13T06:39:49;11.48;;;6.93;;
37383;SDS011;23258;49.718;11.082;2023-10-13T06:42:22;12.15;;;6.60;;
37383;SDS011;23258;49.718;11.082;2023-10-13T06:44:53;14.10;;;6.75;;
37383;SDS011;23258;49.718;11.082;2023-10-13T06:47:24;8.93;;;6.93;;
37383;SDS011;23258;49.718;11.082;2023-10-13T06:49:54;13.25;;;8.95;;
37383;SDS011;23258;49.718;11.082;2023-10-13T06:52:26;7.05;;;6.28;;
37383;SDS011;23258;49.718;11.082;2023-10-13T06:54:56;7.32;;;5.82;;
37383;SDS011;23258;49.718;11.082;2023-10-13T06:57:34;7.55;;;5.80;;
37383;SDS011;23258;49.718;11.082;2023-10-13T07:00:10;7.05;;;5.97;;
37383;SDS011;23258;49.718;11.082;2023-10-13T07:02:46;8.68;;;6.32;;
37383;SDS011;23258;49.718;11.082;2023-10-13T07:05:19;7.10;;;6.15;;
37383;SDS011;23258;49.718;11.082;2023-10-13T07:07:49;7.80;;;5.25;;
37383;SDS011;23258;49.718;11.082;2023-10-13T07:10:26;7.90;;;5.75;;
37383;SDS011;23258;49.718;11.082;2023-10-13T07:13:00;7.90;;;5.45;;
37383;SDS011;23258;49.718;11.082;2023-10-13T07:15:34;8.23;;;5.43;;
37383;SDS011;23258;49.718;11.082;2023-10-13T07:18:12;7.90;;;5.32;;
37383;SDS011;23258;49.718;11.082;2023-10-13T07:20:44;7.40;;;5.20;;
37383;SDS011;23258;49.718;11.082;2023-10-13T07:23:14;7.60;;;5.22;;
37383;SDS011;23258;49.718;11.082;2023-10-13T07:25:53;6.35;;;5.30;;
37383;SDS011;23258;49.718;11.082;2023-10-13T07:28:32;7.07;;;4.63;;
37383;SDS011;23258;49.718;11.082;2023-10-13T07:31:03;6.15;;;5.15;;
37383;SDS011;23258;49.718;11.082;2023-10-13T07:33:41;6.00;;;5.00;;
37383;SDS011;23258;49.718;11.082;2023-10-13T07:36:11;7.88;;;5.18;;
37383;SDS011;23258;49.718;11.082;2023-10-13T07:38:55;7.50;;;5.13;;
37383;SDS011;23258;49.718;11.082;2023-10-13T07:41:59;6.00;;;4.32;;
37383;SDS011;23258;49.718;11.082;2023-10-13T07:44:37;5.93;;;4.60;;
37383;SDS011;23258;49.718;11.082;2023-10-13T07:47:13;5.85;;;4.70;;
37383;SDS011;23258;49.718;11.082;2023-10-13T07:49:45;5.00;;;4.47;;
37383;SDS011;23258;49.718;11.082;2023-10-13T07:52:17;6.97;;;4.60;;
37383;SDS011;23258;49.718;11.082;2023-10-13T07:54:57;4.70;;;4.18;;
37383;SDS011;23258;49.718;11.082;2023-10-13T07:57:39;4.32;;;3.90;;
37383;SDS011;23258;49.718;11.082;2023-10-13T08:00:24;5.13;;;3.83;;
37383;SDS011;23258;49.718;11.082;2023-10-13T08:03:14;9.27;;;4.63;;
37383;SDS011;23258;49.718;11.082;2023-10-13T08:06:02;8.55;;;3.65;;
37383;SDS011;23258;49.718;11.082;2023-10-13T08:08:34;3.55;;;3.25;;
37383;SDS011;23258;49.718;11.082;2023-10-13T08:11:11;5.85;;;3.83;;
37383;SDS011;23258;49.718;11.082;2023-10-13T08:13:51;6.55;;;3.78;;
37383;SDS011;23258;49.718;11.082;2023-10-13T08:16:41;6.07;;;4.18;;
37383;SDS011;23258;49.718;11.082;2023-10-13T08:19:24;5.38;;;3.60;;
37383;SDS011;23258;49.718;11.082;2023-10-13T08:22:08;4.28;;;3.83;;
37383;SDS011;23258;49.718;11.082;2023-10-13T08:24:53;4.18;;;3.28;;
37383;SDS011;23258;49.718;11.082;2023-10-13T08:27:43;7.25;;;4.22;;
37383;SDS011;23258;49.718;11.082;2023-10-13T08:30:16;4.05;;;3.65;;
37383;SDS011;23258;49.718;11.082;2023-10-13T08:32:59;5.53;;;4.13;;
37383;SDS011;23258;49.718;11.082;2023-10-13T08:35:44;6.75;;;4.07;;
37383;SDS011;23258;49.718;11.082;2023-10-13T08:38:44;4.03;;;3.63;;
37383;SDS011;23258;49.718;11.082;2023-10-13T08:41:22;4.25;;;3.40;;
37383;SDS011;23258;49.718;11.082;2023-10-13T08:43:58;4.05;;;3.70;;
37383;SDS011;23258;49.718;11.082;2023-10-13T08:46:32;5.00;;;4.47;;
37383;SDS011;23258;49.718;11.082;2023-10-13T08:49:31;3.75;;;3.42;;
37383;SDS011;23258;49.718;11.082;2023-10-13T08:52:09;7.25;;;4.40;;
37383;SDS011;23258;49.718;11.082;2023-10-13T08:54:51;4.50;;;3.45;;
37383;SDS011;23258;49.718;11.082;2023-10-13T08:57:53;5.00;;;3.47;;
37383;SDS011;23258;49.718;11.082;2023-10-13T09:00:20;6.47;;;3.88;;
37383;SDS011;23258;49.718;11.082;2023-10-13T09:03:16;3.85;;;3.53;;
37383;SDS011;23258;49.718;11.082;2023-10-13T09:06:08;5.38;;;3.80;;
37383;SDS011;23258;49.718;11.082;2023-10-13T09:08:46;8.77;;;3.38;;
37383;SDS011;23258;49.718;11.082;2023-10-13T09:11:31;3.97;;;3.65;;
37383;SDS011;23258;49.718;11.082;2023-10-13T09:14:16;3.63;;;3.30;;
37383;SDS011;23258;49.718;11.082;2023-10-13T09:17:04;4.22;;;3.35;;
37383;SDS011;23258;49.718;11.082;2023-10-13T09:19:45;4.00;;;3.60;;
37383;SDS011;23258;49.718;11.082;2023-10-13T09:22:25;4.95;;;3.53;;
37383;SDS011;23258;49.718;11.082;2023-10-13T09:24:55;6.20;;;3.40;;
37383;SDS011;23258;49.718;11.082;2023-10-13T09:27:25;4.20;;;3.58;;
37383;SDS011;23258;49.718;11.082;2023-10-13T09:29:57;3.72;;;3.42;;
37383;SDS011;23258;49.718;11.082;2023-10-13T09:32:34;4.22;;;3.53;;
37383;SDS011;23258;49.718;11.082;2023-10-13T09:35:16;5.15;;;3.28;;
37383;SDS011;23258;49.718;11.082;2023-10-13T09:37:49;5.88;;;3.55;;
37383;SDS011;23258;49.718;11.082;2023-10-13T09:40:17;4.63;;;3.75;;
37383;SDS011;23258;49.718;11.082;2023-10-13T09:43:01;4.43;;;3.83;;
37383;SDS011;23258;49.718;11.082;2023-10-13T09:45:32;3.90;;;3.58;;
37383;SDS011;23258;49.718;11.082;2023-10-13T09:48:08;3.80;;;3.35;;
37383;SDS011;23258;49.718;11.082;2023-10-13T09:50:43;6.22;;;3.90;;
37383;SDS011;23258;49.718;11.082;2023-10-13T09:53:18;7.35;;;3.50;;
37383;SDS011;23258;49.718;11.082;2023-10-13T09:55:46;5.93;;;4.03;;
37383;SDS011;23258;49.718;11.082;2023-10-13T09:58:17;4.65;;;3.35;;
37383;SDS011;23258;49.718;11.082;2023-10-13T10:00:46;6.90;;;3.10;;
37383;SDS011;23258;49.718;11.082;2023-10-13T10:03:23;4.47;;;3.85;;
37383;SDS011;23258;49.718;11.082;2023-10-13T10:05:57;4.07;;;3.13;;
37383;SDS011;23258;49.718;11.082;2023-10-13T10:08:45;4.65;;;3.70;;
37383;SDS011;23258;49.718;11.082;2023-10-13T10:11:22;6.18;;;3.63;;
37383;SDS011;23258;49.718;11.082;2023-10-13T10:13:56;6.13;;;3.42;;
37383;SDS011;23258;49.718;11.082;2023-10-13T10:16:31;5.57;;;3.85;;
37383;SDS011;23258;49.718;11.082;2023-10-13T10:19:04;9.85;;;3.58;;
37383;SDS011;23258;49.718;11.082;2023-10-13T10:21:34;5.40;;;3.45;;
37383;SDS011;23258;49.718;11.082;2023-10-13T10:24:15;4.07;;;3.70;;
37383;SDS011;23258;49.718;11.082;2023-10-13T10:26:57;5.20;;;3.70;;
37383;SDS011;23258;49.718;11.082;2023-10-13T10:29:26;4.00;;;3.60;;
37383;SDS011;23258;49.718;11.082;2023-10-13T10:31:59;5.35;;;3.25;;
37383;SDS011;23258;49.718;11.082;2023-10-13T10:34:33;6.38;;;3.25;;
37383;SDS011;23258;49.718;11.082;2023-10-13T10:37:03;3.88;;;3.50;;
37383;SDS011;23258;49.718;11.082;2023-10-13T10:39:38;3.45;;;3.15;;
37383;SDS011;23258;49.718;11.082;2023-10-13T10:42:16;8.00;;;3.53;;
37383;SDS011;23258;49.718;11.082;2023-10-13T10:44:50;6.40;;;3.45;;
37383;SDS011;23258;49.718;11.082;2023-10-13T10:47:32;4.45;;;3.03;;
37383;SDS011;23258;49.718;11.082;2023-10-13T10:50:04;6.60;;;3.85;;
37383;SDS011;23258;49.718;11.082;2023-10-13T10:52:46;4.72;;;3.33;;
37383;SDS011;23258;49.718;11.082;2023-10-13T10:55:22;3.67;;;3.28;;
37383;SDS011;23258;49.718;11.082;2023-10-13T10:57:58;3.47;;;3.17;;
37383;SDS011;23258;49.718;11.082;2023-10-13T11:00:28;5.30;;;3.33;;
37383;SDS011;23258;49.718;11.082;2023-10-13T11:03:08;4.57;;;3.40;;
37383;SDS011;23258;49.718;11.082;2023-10-13T11:05:45;3.72;;;3.10;;
37383;SDS011;23258;49.718;11.082;2023-10-13T11:08:23;4.20;;;2.97;;
37383;SDS011;23258;49.718;11.082;2023-10-13T11:11:01;6.05;;;3.40;;
37383;SDS011;23258;49.718;11.082;2023-10-13T11:13:40;5.30;;;2.90;;
37383;SDS011;23258;49.718;11.082;2023-10-13T11:16:21;6.85;;;3.40;;
37383;SDS011;23258;49.718;11.082;2023-10-13T11:19:01;5.90;;;3.45;;
37383;SDS011;23258;49.718;11.082;2023-10-13T11:21:32;7.78;;;3.72;;
37383;SDS011;23258;49.718;11.082;2023-10-13T11:24:04;6.07;;;3.53;;
37383;SDS011;23258;49.718;11.082;2023-10-13T11:26:41;3.78;;;3.38;;
37383;SDS011;23258;49.718;11.082;2023-10-13T11:29:16;3.75;;;3.42;;
37383;SDS011;23258;49.718;11.082;2023-10-13T11:31:49;7.40;;;4.22;;
37383;SDS011;23258;49.718;11.082;2023-10-13T11:34:25;4.18;;;3.28;;
37383;SDS011;23258;49.718;11.082;2023-10-13T11:37:07;8.02;;;4.68;;
37383;SDS011;23258;49.718;11.082;2023-10-13T11:39:49;3.67;;;3.28;;
37383;SDS011;23258;49.718;11.082;2023-10-13T11:42:21;5.90;;;3.10;;
37383;SDS011;23258;49.718;11.082;2023-10-13T11:44:53;4.25;;;3.38;;
37383;SDS011;23258;49.718;11.082;2023-10-13T11:47:42;4.30;;;3.88;;
37383;SDS011;23258;49.718;11.082;2023-10-13T11:50:26;4.72;;;3.33;;
37383;SDS011;23258;49.718;11.082;2023-10-13T11:53:02;4.07;;;3.05;;
37383;SDS011;23258;49.718;11.082;2023-10-13T11:55:34;6.20;;;3.67;;
37383;SDS011;23258;49.718;11.082;2023-10-13T11:58:07;4.32;;;3.25;;
37383;SDS011;23258;49.718;11.082;2023-10-13T12:00:40;4.47;;;3.60;;
37383;SDS011;23258;49.718;11.082;2023-10-13T12:03:35;5.38;;;3.97;;
37383;SDS011;23258;49.718;11.082;2023-10-13T12:06:17;4.80;;;3.40;;
37383;SDS011;23258;49.718;11.082;2023-10-13T12:08:59;5.22;;;3.47;;
37383;SDS011;23258;49.718;11.082;2023-10-13T12:11:50;4.28;;;3.28;;
37383;SDS011;23258;49.718;11.082;2023-10-13T12:14:24;6.13;;;3.63;;
37383;SDS011;23258;49.718;11.082;2023-10-13T12:17:03;3.35;;;2.92;;
37383;SDS011;23258;49.718;11.082;2023-10-13T12:19:37;2.85;;;2.65;;
37383;SDS011;23258;49.718;11.082;2023-10-13T12:22:08;4.38;;;3.90;;
37383;SDS011;23258;49.718;11.082;2023-10-13T12:24:43;5.18;;;3.10;;
37383;SDS011;23258;49.718;11.082;2023-10-13T12:27:20;5.63;;;3.47;;
37383;SDS011;23258;49.718;11.082;2023-10-13T12:29:52;4.50;;;4.00;;
37383;SDS011;23258;49.718;11.082;2023-10-13T12:32:23;4.07;;;3.28;;
37383;SDS011;23258;49.718;11.082;2023-10-13T12:34:57;4.65;;;3.50;;
37383;SDS011;23258;49.718;11.082;2023-10-13T12:37:47;3.83;;;3.53;;
37383;SDS011;23258;49.718;11.082;2023-10-13T12:40:32;4.90;;;3.20;;
37383;SDS011;23258;49.718;11.082;2023-10-13T12:43:14;4.07;;;3.20;;
37383;SDS011;23258;49.718;11.082;2023-10-13T12:45:59;4.65;;;3.30;;
37383;SDS011;23258;49.718;11.082;2023-10-13T12:48:43;5.88;;;3.45;;
37383;SDS011;23258;49.718;11.082;2023-10-13T12:51:31;4.13;;;3.45;;
37383;SDS011;23258;49.718;11.082;2023-10-13T12:54:20;4.95;;;3.35;;
37383;SDS011;23258;49.718;11.082;2023-10-13T12:56:50;4.93;;;3.40;;
37383;SDS011;23258;49.718;11.082;2023-10-13T12:59:24;5.32;;;3.15;;
37383;SDS011;23258;49.718;11.082;2023-10-13T13:01:58;2.58;;;2.38;;
37383;SDS011;23258;49.718;11.082;2023-10-13T13:04:33;4.97;;;2.85;;
37383;SDS011;23258;49.718;11.082;2023-10-13T13:07:04;3.38;;;3.00;;
37383;SDS011;23258;49.718;11.082;2023-10-13T13:09:40;3.97;;;3.25;;
37383;SDS011;23258;49.718;11.082;2023-10-13T13:12:09;3.92;;;2.88;;
37383;SDS011;23258;49.718;11.082;2023-10-13T13:14:40;3.53;;;3.13;;
37383;SDS011;23258;49.718;11.082;2023-10-13T13:17:15;3.83;;;3.25;;
37383;SDS011;23258;49.718;11.082;2023-10-13T13:19:45;3.72;;;3.13;;
37383;SDS011;23258;49.718;11.082;2023-10-13T13:22:15;3.97;;;3.63;;
37383;SDS011;23258;49.718;11.082;2023-10-13T13:24:45;5.55;;;3.40;;
37383;SDS011;23258;49.718;11.082;2023-10-13T13:27:17;3.50;;;3.20;;
37383;SDS011;23258;49.718;11.082;2023-10-13T13:29:49;5.20;;;3.15;;
37383;SDS011;23258;49.718;11.082;2023-10-13T13:32:25;5.93;;;3.20;;
37383;SDS011;23258;49.718;11.082;2023-10-13T13:34:55;6.07;;;3.08;;
37383;SDS011;23258;49.718;11.082;2023-10-13T13:37:31;3.28;;;2.97;;
37383;SDS011;23258;49.718;11.082;2023-10-13T13:40:03;3.58;;;3.25;;
37383;SDS011;23258;49.718;11.082;2023-10-13T13:42:43;3.03;;;2.75;;
37383;SDS011;23258;49.718;11.082;2023-10-13T13:45:13;3.72;;;3.10;;
37383;SDS011;23258;49.718;11.082;2023-10-13T13:47:51;4.95;;;3.70;;
37383;SDS011;23258;49.718;11.082;2023-10-13T13:50:22;4.50;;;3.35;;
37383;SDS011;23258;49.718;11.082;2023-10-13T13:52:56;4.72;;;3.38;;
37383;SDS011;23258;49.718;11.082;2023-10-13T13:55:26;5.20;;;3.03;;
37383;SDS011;23258;49.718;11.082;2023-10-13T13:57:58;3.58;;;3.28;;
37383;SDS011;23258;49.718;11.082;2023-10-13T14:00:27;4.32;;;3.38;;
37383;SDS011;23258;49.718;11.082;2023-10-13T14:03:08;4.57;;;3.10;;
37383;SDS011;23258;49.718;11.082;2023-10-13T14:05:42;4.15;;;3.10;;
37383;SDS011;23258;49.718;11.082;2023-10-13T14:08:12;4.07;;;2.95;;
37383;SDS011;23258;49.718;11.082;2023-10-13T14:10:43;3.90;;;3.50;;
37383;SDS011;23258;49.718;11.082;2023-10-13T14:13:25;7.72;;;3.30;;
37383;SDS011;23258;49.718;11.082;2023-10-13T14:16:15;3.33;;;3.00;;
37383;SDS011;23258;49.718;11.082;2023-10-13T14:18:52;4.18;;;2.92;;
37383;SDS011;23258;49.718;11.082;2023-10-13T14:21:22;6.32;;;3.60;;
37383;SDS011;23258;49.718;11.082;2023-10-13T14:23:52;3.60;;;2.92;;
37383;SDS011;23258;49.718;11.082;2023-10-13T14:26:22;3.78;;;3.47;;
37383;SDS011;23258;49.718;11.082;2023-10-13T14:28:52;3.05;;;2.85;;
37383;SDS011;23258;49.718;11.082;2023-10-13T14:31:32;4.32;;;3.92;;
37383;SDS011;23258;49.718;11.082;2023-10-13T14:34:05;3.28;;;2.97;;
37383;SDS011;23258;49.718;11.082;2023-10-13T14:36:36;2.78;;;2.58;;
37383;SDS011;23258;49.718;11.082;2023-10-13T14:39:05;3.03;;;2.83;;
37383;SDS011;23258;49.718;11.082;2023-10-13T14:41:37;7.25;;;3.20;;
37383;SDS011;23258;49.718;11.082;2023-10-13T14:44:07;3.45;;;2.58;;
37383;SDS011;23258;49.718;11.082;2023-10-13T14:46:39;4.35;;;3.20;;
37383;SDS011;23258;49.718;11.082;2023-10-13T14:49:12;5.13;;;2.97;;
37383;SDS011;23258;49.718;11.082;2023-10-13T14:51:45;4.38;;;3.08;;
37383;SDS011;23258;49.718;11.082;2023-10-13T14:54:16;5.38;;;3.78;;
37383;SDS011;23258;49.718;11.082;2023-10-13T14:56:52;8.57;;;4.13;;
37383;SDS011;23258;49.718;11.082;2023-10-13T14:59:22;4.38;;;2.75;;
37383;SDS011;23258;49.718;11.082;2023-10-13T15:01:52;5.78;;;3.20;;
37383;SDS011;23258;49.718;11.082;2023-10-13T15:04:24;3.60;;;2.97;;
37383;SDS011;23258;49.718;11.082;2023-10-13T15:06:55;3.45;;;3.15;;
37383;SDS011;23258;49.718;11.082;2023-10-13T15:09:25;3.53;;;2.95;;
37383;SDS011;23258;49.718;11.082;2023-10-13T15:11:54;6.88;;;3.78;;
37383;SDS011;23258;49.718;11.082;2023-10-13T15:14:24;3.83;;;3.47;;
37383;SDS011;23258;49.718;11.082;2023-10-13T15:16:54;4.75;;;3.50;;
37383;SDS011;23258;49.718;11.082;2023-10-13T15:19:30;4.13;;;3.33;;
37383;SDS011;23258;49.718;11.082;2023-10-13T15:22:02;3.08;;;2.80;;
37383;SDS011;23258;49.718;11.082;2023-10-13T15:24:33;3.92;;;3.08;;
37383;SDS011;23258;49.718;11.082;2023-10-13T15:27:09;6.68;;;3.70;;
37383;SDS011;23258;49.718;11.082;2023-10-13T15:29:39;3.65;;;2.97;;